createdAt,value
2018-09-30T00:00:19.831Z,7.83
2018-09-30T00:02:48.172Z,7.95
2018-09-30T00:05:16.480Z,7.86
2018-09-30T00:07:44.796Z,7.78
2018-09-30T00:10:13.098Z,7.97
2018-09-30T00:12:41.404Z,7.76
2018-09-30T00:15:09.720Z,7.70
2018-09-30T00:17:38.017Z,7.54
2018-09-30T00:20:06.367Z,7.50
2018-09-30T00:22:34.675Z,7.55
2018-09-30T00:25:08.631Z,7.50
2018-09-30T00:27:36.936Z,7.48
2018-09-30T00:30:05.248Z,7.40
2018-09-30T00:32:33.583Z,7.32
2018-09-30T00:35:01.929Z,7.38
2018-09-30T00:37:30.215Z,7.21
2018-09-30T00:39:58.531Z,7.11
2018-09-30T00:42:26.824Z,7.20
2018-09-30T00:44:55.143Z,7.24
2018-09-30T00:47:23.443Z,7.11
2018-09-30T00:49:51.747Z,7.04
2018-09-30T00:52:20.067Z,7.07
2018-09-30T00:54:48.367Z,7.13
2018-09-30T00:57:16.686Z,7.22
2018-09-30T00:59:44.994Z,7.22
2018-09-30T01:02:13.312Z,7.09
2018-09-30T01:04:41.615Z,7.13
2018-09-30T01:07:09.920Z,7.12
2018-09-30T01:09:38.247Z,7.12
2018-09-30T01:12:06.547Z,7.07
2018-09-30T01:14:34.877Z,7.02
2018-09-30T01:17:03.175Z,7.02
2018-09-30T01:19:31.483Z,6.92
2018-09-30T01:21:59.799Z,6.91
2018-09-30T01:24:28.099Z,7.13
2018-09-30T01:26:56.415Z,7.01
2018-09-30T01:29:24.738Z,6.98
2018-09-30T01:31:53.056Z,6.80
2018-09-30T01:34:21.359Z,6.85
2018-09-30T01:36:49.683Z,6.85
2018-09-30T01:39:18.003Z,6.96
2018-09-30T01:41:46.323Z,6.96
2018-09-30T01:44:14.640Z,6.77
2018-09-30T01:46:42.951Z,6.71
2018-09-30T01:49:11.260Z,6.80
2018-09-30T01:51:39.568Z,6.95
2018-09-30T01:54:07.875Z,6.91
2018-09-30T01:56:36.192Z,6.81
2018-09-30T01:59:04.499Z,6.66
2018-09-30T02:01:32.815Z,6.58
2018-09-30T02:04:01.118Z,6.50
2018-09-30T02:06:29.431Z,6.58
2018-09-30T02:08:57.737Z,6.48
2018-09-30T02:11:26.052Z,6.50
2018-09-30T02:13:54.356Z,6.58
2018-09-30T02:16:22.664Z,6.47
2018-09-30T02:18:50.974Z,6.38
2018-09-30T02:21:19.286Z,6.47
2018-09-30T02:23:47.588Z,6.64
2018-09-30T02:26:15.899Z,6.60
2018-09-30T02:28:44.199Z,6.61
2018-09-30T02:31:12.605Z,6.67
2018-09-30T02:33:40.891Z,6.51
2018-09-30T02:36:09.208Z,6.52
2018-09-30T02:38:37.823Z,6.53
2018-09-30T02:41:06.147Z,6.50
2018-09-30T02:43:34.455Z,6.45
2018-09-30T02:46:02.771Z,6.61
2018-09-30T02:48:31.075Z,6.56
2018-09-30T02:50:59.387Z,6.58
2018-09-30T02:53:27.699Z,6.65
2018-09-30T02:55:56.020Z,6.51
2018-09-30T02:58:24.344Z,6.52
2018-09-30T03:00:52.644Z,6.41
2018-09-30T03:03:20.944Z,6.38
2018-09-30T03:05:49.257Z,6.49
2018-09-30T03:08:23.091Z,6.30
2018-09-30T03:10:51.407Z,6.32
2018-09-30T03:13:19.720Z,6.39
2018-09-30T03:15:48.031Z,6.38
2018-09-30T03:18:16.336Z,6.46
2018-09-30T03:20:44.652Z,6.36
2018-09-30T03:23:12.959Z,6.47
2018-09-30T03:25:41.272Z,6.53
2018-09-30T03:28:09.580Z,6.57
2018-09-30T03:30:37.900Z,6.48
2018-09-30T03:33:06.203Z,6.56
2018-09-30T03:35:34.511Z,6.43
2018-09-30T03:38:02.812Z,6.43
2018-09-30T03:40:32.095Z,6.48
2018-09-30T03:43:00.387Z,6.47
2018-09-30T03:45:28.704Z,6.33
2018-09-30T03:47:57.020Z,6.39
2018-09-30T03:50:25.335Z,6.30
2018-09-30T03:52:53.635Z,6.47
2018-09-30T03:55:21.957Z,6.35
2018-09-30T03:57:50.275Z,6.32
2018-09-30T04:00:18.578Z,6.19
2018-09-30T04:02:46.908Z,6.10
2018-09-30T04:05:15.211Z,6.27
2018-09-30T04:07:43.523Z,6.23
2018-09-30T04:10:12.031Z,6.36
2018-09-30T04:12:40.125Z,6.36
2018-09-30T04:15:08.448Z,6.30
2018-09-30T04:17:36.774Z,6.26
2018-09-30T04:20:05.083Z,6.26
2018-09-30T04:22:33.392Z,6.33
2018-09-30T04:25:01.695Z,6.27
2018-09-30T04:27:30.010Z,6.26
2018-09-30T04:29:58.316Z,6.21
2018-09-30T04:32:26.634Z,6.15
2018-09-30T04:34:54.947Z,6.31
2018-09-30T04:37:23.249Z,6.28
2018-09-30T04:39:51.564Z,6.31
2018-09-30T04:42:19.872Z,6.34
2018-09-30T04:44:48.183Z,6.15
2018-09-30T04:47:16.523Z,6.19
2018-09-30T04:49:44.827Z,6.05
2018-09-30T04:52:13.139Z,6.03
2018-09-30T04:54:41.439Z,5.91
2018-09-30T04:57:09.751Z,5.97
2018-09-30T04:59:38.058Z,6.17
2018-09-30T05:02:06.375Z,6.08
2018-09-30T05:04:34.676Z,5.92
2018-09-30T05:07:02.987Z,5.88
2018-09-30T05:09:31.311Z,5.95
2018-09-30T05:11:59.628Z,6.12
2018-09-30T05:14:27.935Z,6.04
2018-09-30T05:16:56.236Z,6.12
2018-09-30T05:19:24.548Z,6.11
2018-09-30T05:21:52.866Z,6.16
2018-09-30T05:24:22.144Z,6.21
2018-09-30T05:26:50.445Z,6.17
2018-09-30T05:29:18.766Z,6.18
2018-09-30T05:31:47.059Z,6.24
2018-09-30T05:34:15.371Z,6.17
2018-09-30T05:36:43.674Z,6.18
2018-09-30T05:39:11.983Z,6.21
2018-09-30T05:41:40.287Z,6.15
2018-09-30T05:44:08.628Z,6.20
2018-09-30T05:46:36.926Z,6.26
2018-09-30T05:49:05.258Z,6.19
2018-09-30T05:51:33.539Z,6.22
2018-09-30T05:54:01.851Z,6.30
2018-09-30T05:56:30.159Z,6.25
2018-09-30T05:58:58.463Z,6.28
2018-09-30T06:01:26.779Z,6.32
2018-09-30T06:03:55.172Z,6.23
2018-09-30T06:06:23.411Z,6.49
2018-09-30T06:08:51.823Z,6.52
2018-09-30T06:11:20.077Z,6.55
2018-09-30T06:13:48.386Z,6.50
2018-09-30T06:16:16.803Z,6.70
2018-09-30T06:18:50.413Z,6.77
2018-09-30T06:21:20.040Z,6.83
2018-09-30T06:23:48.364Z,6.90
2018-09-30T06:26:16.663Z,6.85
2018-09-30T06:28:44.966Z,6.97
2018-09-30T06:31:13.299Z,6.97
2018-09-30T06:33:41.591Z,7.10
2018-09-30T06:36:09.908Z,7.27
2018-09-30T06:38:38.225Z,7.18
2018-09-30T06:41:06.527Z,7.26
2018-09-30T06:43:34.831Z,7.30
2018-09-30T06:46:03.151Z,7.40
2018-09-30T06:48:31.459Z,7.40
2018-09-30T06:50:59.835Z,7.56
2018-09-30T06:53:28.083Z,7.67
2018-09-30T06:55:56.398Z,7.74
2018-09-30T06:58:24.706Z,7.90
2018-09-30T07:00:53.018Z,7.96
2018-09-30T07:03:21.311Z,8.11
2018-09-30T07:05:49.622Z,8.12
2018-09-30T07:08:17.935Z,8.17
2018-09-30T07:10:46.260Z,8.22
2018-09-30T07:13:14.547Z,8.19
2018-09-30T07:15:42.897Z,8.36
2018-09-30T07:18:11.171Z,8.49
2018-09-30T07:20:39.479Z,8.59
2018-09-30T07:23:07.776Z,8.49
2018-09-30T07:25:36.092Z,8.75
2018-09-30T07:28:04.375Z,8.71
2018-09-30T07:30:32.704Z,8.81
2018-09-30T07:33:01.023Z,8.91
2018-09-30T07:35:29.312Z,8.97
2018-09-30T07:37:57.602Z,9.08
2018-09-30T07:40:25.898Z,9.26
2018-09-30T07:42:54.191Z,9.41
2018-09-30T07:45:22.499Z,9.45
2018-09-30T07:47:50.792Z,9.52
2018-09-30T07:50:19.103Z,9.68
2018-09-30T07:52:47.435Z,9.56
2018-09-30T07:55:15.733Z,9.70
2018-09-30T07:57:44.032Z,9.86
2018-09-30T08:00:12.339Z,10.02
2018-09-30T08:02:40.635Z,10.14
2018-09-30T08:05:08.956Z,10.20
2018-09-30T08:07:37.262Z,10.34
2018-09-30T08:10:05.571Z,10.33
2018-09-30T08:12:33.862Z,10.48
2018-09-30T08:15:02.176Z,10.49
2018-09-30T08:17:30.472Z,10.64
2018-09-30T08:19:58.780Z,10.79
2018-09-30T08:22:27.081Z,10.72
2018-09-30T08:24:55.387Z,10.84
2018-09-30T08:27:23.733Z,10.96
2018-09-30T08:29:52.016Z,10.82
2018-09-30T08:32:20.311Z,11.12
2018-09-30T08:34:48.615Z,11.17
2018-09-30T08:37:16.915Z,11.16
2018-09-30T08:39:45.245Z,11.30
2018-09-30T08:42:13.516Z,11.36
2018-09-30T08:44:41.822Z,11.64
2018-09-30T08:47:10.163Z,11.60
2018-09-30T08:49:38.447Z,11.81
2018-09-30T08:52:06.735Z,11.92
2018-09-30T08:54:35.036Z,12.02
2018-09-30T08:57:03.348Z,11.96
2018-09-30T08:59:31.649Z,12.10
2018-09-30T09:01:59.955Z,12.14
2018-09-30T09:04:28.274Z,12.11
2018-09-30T09:06:56.594Z,12.37
2018-09-30T09:09:24.887Z,12.50
2018-09-30T09:11:53.208Z,12.54
2018-09-30T09:14:21.494Z,12.59
2018-09-30T09:16:49.807Z,12.55
2018-09-30T09:19:18.121Z,13.02
2018-09-30T09:21:46.427Z,13.17
2018-09-30T09:24:14.728Z,13.40
2018-09-30T09:26:43.082Z,13.14
2018-09-30T09:29:11.343Z,13.41
2018-09-30T09:31:39.708Z,13.38
2018-09-30T09:34:07.956Z,13.11
2018-09-30T09:36:36.263Z,13.40
2018-09-30T09:39:04.560Z,13.82
2018-09-30T09:41:32.878Z,13.85
2018-09-30T09:44:01.167Z,13.97
2018-09-30T09:46:29.476Z,14.35
2018-09-30T09:48:57.776Z,14.37
2018-09-30T09:51:26.083Z,14.52
2018-09-30T09:53:54.383Z,14.64
2018-09-30T09:56:22.691Z,14.59
2018-09-30T09:58:51.022Z,14.70
2018-09-30T10:01:19.299Z,14.75
2018-09-30T10:03:47.595Z,14.94
2018-09-30T10:06:15.903Z,14.98
2018-09-30T10:08:44.203Z,15.25
2018-09-30T10:11:12.519Z,15.34
2018-09-30T10:13:51.626Z,15.22
2018-09-30T10:16:19.938Z,15.32
2018-09-30T10:18:48.239Z,15.47
2018-09-30T10:21:16.562Z,15.67
2018-09-30T10:23:44.889Z,15.49
2018-09-30T10:26:13.191Z,15.64
2018-09-30T10:28:41.787Z,15.39
2018-09-30T10:31:10.088Z,15.57
2018-09-30T10:33:38.436Z,15.97
2018-09-30T10:36:06.694Z,15.87
2018-09-30T10:38:35.103Z,16.07
2018-09-30T10:41:03.420Z,16.15
2018-09-30T10:43:31.723Z,16.27
2018-09-30T10:46:00.028Z,16.05
2018-09-30T10:48:28.376Z,16.03
2018-09-30T10:50:56.634Z,15.96
2018-09-30T10:53:25.384Z,16.14
2018-09-30T10:55:53.699Z,16.07
2018-09-30T10:58:21.995Z,16.29
2018-09-30T11:00:50.285Z,16.12
2018-09-30T11:03:18.627Z,16.20
2018-09-30T11:05:46.891Z,16.50
2018-09-30T11:08:15.203Z,16.61
2018-09-30T11:10:54.198Z,16.49
2018-09-30T11:13:24.609Z,16.52
2018-09-30T11:15:52.894Z,16.53
2018-09-30T11:18:21.187Z,16.78
2018-09-30T11:20:49.483Z,16.91
2018-09-30T11:23:17.804Z,16.75
2018-09-30T11:25:46.148Z,16.66
2018-09-30T11:28:14.419Z,16.86
2018-09-30T11:30:42.722Z,16.67
2018-09-30T11:33:11.067Z,16.69
2018-09-30T11:35:39.378Z,16.83
2018-09-30T11:38:07.679Z,16.85
2018-09-30T11:40:35.981Z,16.86
2018-09-30T11:43:09.063Z,16.81
2018-09-30T11:45:37.415Z,16.79
2018-09-30T11:48:05.819Z,16.82
2018-09-30T11:50:34.111Z,16.89
2018-09-30T11:53:02.423Z,17.08
2018-09-30T11:55:30.727Z,17.17
2018-09-30T11:57:59.025Z,16.98
2018-09-30T12:00:27.343Z,17.02
2018-09-30T12:02:55.639Z,17.17
2018-09-30T12:05:23.956Z,17.27
2018-09-30T12:07:52.254Z,17.17
2018-09-30T12:10:20.559Z,17.14
2018-09-30T12:12:48.866Z,17.23
2018-09-30T12:15:17.167Z,17.43
2018-09-30T12:17:45.471Z,17.62
2018-09-30T12:20:13.775Z,17.28
2018-09-30T12:22:42.075Z,17.38
2018-09-30T12:25:10.390Z,17.40
2018-09-30T12:27:38.687Z,17.64
2018-09-30T12:30:06.983Z,17.70
2018-09-30T12:32:35.315Z,17.62
2018-09-30T12:35:03.604Z,17.87
2018-09-30T12:37:31.907Z,17.99
2018-09-30T12:40:00.199Z,17.93
2018-09-30T12:42:28.504Z,17.80
2018-09-30T12:44:56.807Z,17.92
2018-09-30T12:47:25.179Z,17.80
2018-09-30T12:49:53.582Z,17.93
2018-09-30T12:52:21.839Z,18.12
2018-09-30T12:54:50.130Z,17.96
2018-09-30T12:57:18.435Z,17.94
2018-09-30T12:59:46.731Z,17.86
2018-09-30T13:02:15.060Z,17.95
2018-09-30T13:04:43.369Z,17.90
2018-09-30T13:07:11.664Z,18.11
2018-09-30T13:09:40.019Z,18.31
2018-09-30T13:12:08.302Z,18.24
2018-09-30T13:14:36.612Z,18.37
2018-09-30T13:17:04.915Z,18.34
2018-09-30T13:19:33.210Z,18.32
2018-09-30T13:22:01.515Z,18.41
2018-09-30T13:24:29.824Z,18.57
2018-09-30T13:26:59.446Z,18.62
2018-09-30T13:29:27.751Z,18.60
2018-09-30T13:31:56.051Z,18.59
2018-09-30T13:34:24.372Z,18.71
2018-09-30T13:36:52.671Z,18.60
2018-09-30T13:39:20.976Z,18.66
2018-09-30T13:41:49.298Z,18.58
2018-09-30T13:44:17.604Z,18.37
2018-09-30T13:46:45.895Z,18.55
2018-09-30T13:49:14.209Z,18.58
2018-09-30T13:51:42.507Z,18.66
2018-09-30T13:54:10.803Z,18.77
2018-09-30T13:56:39.160Z,18.69
2018-09-30T13:59:07.444Z,18.66
2018-09-30T14:01:35.762Z,18.60
2018-09-30T14:04:04.064Z,18.68
2018-09-30T14:06:32.406Z,18.69
2018-09-30T14:09:00.712Z,18.75
2018-09-30T14:11:29.038Z,18.79
2018-09-30T14:13:57.351Z,18.62
2018-09-30T14:16:25.690Z,18.86
2018-09-30T14:18:53.959Z,18.72
2018-09-30T14:21:22.258Z,18.83
2018-09-30T14:23:50.579Z,18.85
2018-09-30T14:26:18.873Z,18.80
2018-09-30T14:28:47.192Z,18.93
2018-09-30T14:31:15.490Z,19.06
2018-09-30T14:33:43.787Z,19.06
2018-09-30T14:36:12.096Z,18.87
2018-09-30T14:38:40.395Z,18.90
2018-09-30T14:41:08.707Z,18.83
2018-09-30T14:43:37.014Z,18.62
2018-09-30T14:46:05.311Z,19.00
2018-09-30T14:48:33.679Z,18.99
2018-09-30T14:51:01.921Z,18.75
2018-09-30T14:53:30.223Z,18.81
2018-09-30T14:55:58.527Z,18.72
2018-09-30T14:58:26.823Z,18.90
2018-09-30T15:00:55.138Z,18.62
2018-09-30T15:03:23.443Z,18.58
2018-09-30T15:05:51.751Z,18.55
2018-09-30T15:08:20.096Z,18.73
2018-09-30T15:10:48.423Z,18.58
2018-09-30T15:13:16.735Z,18.57
2018-09-30T15:15:45.037Z,18.66
2018-09-30T15:18:13.347Z,18.56
2018-09-30T15:20:41.663Z,18.57
2018-09-30T15:23:10.008Z,18.50
2018-09-30T15:25:38.307Z,18.63
2018-09-30T15:28:06.611Z,18.66
2018-09-30T15:30:34.915Z,18.57
2018-09-30T15:33:03.216Z,18.43
2018-09-30T15:35:31.524Z,18.27
2018-09-30T15:37:59.818Z,18.35
2018-09-30T15:40:28.139Z,18.34
2018-09-30T15:42:56.604Z,18.28
2018-09-30T15:45:24.804Z,18.34
2018-09-30T15:47:53.126Z,18.21
2018-09-30T15:50:21.419Z,18.13
2018-09-30T15:52:49.714Z,18.03
2018-09-30T15:55:18.029Z,18.02
2018-09-30T15:57:46.329Z,17.86
2018-09-30T16:00:14.639Z,17.84
2018-09-30T16:02:42.934Z,17.79
2018-09-30T16:05:11.223Z,17.84
2018-09-30T16:07:39.541Z,17.85
2018-09-30T16:10:07.831Z,17.78
2018-09-30T16:12:36.131Z,17.67
2018-09-30T16:15:04.437Z,17.70
2018-09-30T16:17:32.731Z,17.51
2018-09-30T16:20:01.043Z,17.45
2018-09-30T16:22:29.334Z,17.35
2018-09-30T16:24:57.630Z,17.17
2018-09-30T16:27:25.936Z,17.05
2018-09-30T16:29:54.223Z,16.87
2018-09-30T16:32:22.528Z,16.85
2018-09-30T16:34:50.823Z,16.86
2018-09-30T16:37:19.125Z,16.72
2018-09-30T16:39:47.427Z,16.62
2018-09-30T16:42:15.727Z,16.52
2018-09-30T16:44:44.023Z,16.42
2018-09-30T16:47:12.484Z,16.29
2018-09-30T16:49:40.786Z,16.25
2018-09-30T16:52:09.075Z,16.12
2018-09-30T16:57:12.064Z,15.98
2018-09-30T16:59:40.355Z,15.85
2018-09-30T17:02:08.671Z,15.80
2018-09-30T17:04:36.962Z,15.96
2018-09-30T17:07:05.283Z,15.84
2018-09-30T17:09:33.667Z,15.74
2018-09-30T17:12:01.959Z,15.68
2018-09-30T17:14:30.258Z,15.75
2018-09-30T17:16:58.579Z,15.81
2018-09-30T17:19:26.876Z,15.59
2018-09-30T17:21:55.183Z,15.56
2018-09-30T17:24:23.475Z,15.61
2018-09-30T17:26:51.778Z,15.51
2018-09-30T17:29:20.088Z,15.46
2018-09-30T17:31:48.387Z,15.42
2018-09-30T17:34:16.695Z,15.70
2018-09-30T17:36:45.016Z,15.83
2018-09-30T17:39:13.320Z,15.65
2018-09-30T17:41:41.643Z,15.79
2018-09-30T17:44:09.963Z,15.52
2018-09-30T17:46:38.272Z,15.30
2018-09-30T17:49:06.577Z,15.35
2018-09-30T17:51:34.878Z,15.48
2018-09-30T17:54:03.179Z,15.35
2018-09-30T17:56:31.486Z,15.09
2018-09-30T17:58:59.787Z,15.09
2018-09-30T18:01:28.103Z,15.05
2018-09-30T18:03:56.459Z,14.80
2018-09-30T18:06:24.730Z,14.70
2018-09-30T18:08:53.028Z,14.79
2018-09-30T18:11:21.355Z,14.72
2018-09-30T18:13:49.703Z,14.63
2018-09-30T18:16:18.023Z,14.55
2018-09-30T18:18:46.323Z,14.42
2018-09-30T18:21:14.647Z,14.44
2018-09-30T18:23:42.985Z,14.35
2018-09-30T18:26:11.475Z,14.35
2018-09-30T18:28:39.787Z,14.32
2018-09-30T18:31:08.083Z,14.22
2018-09-30T18:33:36.448Z,14.13
2018-09-30T18:36:04.758Z,14.07
2018-09-30T18:38:33.075Z,13.97
2018-09-30T18:41:01.396Z,14.00
2018-09-30T18:43:29.421Z,14.02
2018-09-30T18:45:57.399Z,13.92
2018-09-30T18:48:25.639Z,13.92
2018-09-30T18:50:53.675Z,13.82
2018-09-30T18:53:21.692Z,13.72
2018-09-30T18:55:49.704Z,13.66
2018-09-30T18:58:17.750Z,13.64
2018-09-30T19:00:45.764Z,13.60
2018-09-30T19:03:13.794Z,13.54
2018-09-30T19:05:41.778Z,13.53
2018-09-30T19:08:09.791Z,13.47
2018-09-30T19:10:37.792Z,13.39
2018-09-30T19:13:05.815Z,13.51
2018-09-30T19:15:33.838Z,13.44
2018-09-30T19:18:01.844Z,13.56
2018-09-30T19:20:29.860Z,13.80
2018-09-30T19:22:57.948Z,13.78
2018-09-30T19:25:25.903Z,13.97
2018-09-30T19:27:53.900Z,14.07
2018-09-30T19:30:21.896Z,13.81
2018-09-30T19:32:49.904Z,14.09
2018-09-30T19:35:17.903Z,14.05
2018-09-30T19:37:45.919Z,14.16
2018-09-30T19:40:13.948Z,14.12
2018-09-30T19:42:41.994Z,13.96
2018-09-30T19:45:09.971Z,14.02
2018-09-30T19:47:37.977Z,13.96
2018-09-30T19:50:05.984Z,13.73
2018-09-30T19:52:33.992Z,13.54
2018-09-30T19:55:02.003Z,13.53
2018-09-30T19:57:30.012Z,13.40
2018-09-30T19:59:58.024Z,13.29
2018-09-30T20:02:26.031Z,13.29
2018-09-30T20:04:54.036Z,13.17
2018-09-30T20:07:22.795Z,13.10
2018-09-30T20:09:50.799Z,12.96
2018-09-30T20:12:18.831Z,12.85
2018-09-30T20:14:46.851Z,12.77
2018-09-30T20:17:14.855Z,12.83
2018-09-30T20:19:42.867Z,13.09
2018-09-30T20:22:10.876Z,13.13
2018-09-30T20:24:38.938Z,12.99
2018-09-30T20:27:06.939Z,12.93
2018-09-30T20:29:34.941Z,12.82
2018-09-30T20:32:02.967Z,12.80
2018-09-30T20:34:30.985Z,12.81
2018-09-30T20:36:59.015Z,12.69
2018-09-30T20:39:27.030Z,12.73
2018-09-30T20:41:55.031Z,12.58
2018-09-30T20:44:23.040Z,12.53
2018-09-30T20:46:51.089Z,12.47
2018-09-30T20:49:19.105Z,12.47
2018-09-30T20:51:47.164Z,12.55
2018-09-30T20:54:15.169Z,12.47
2018-09-30T20:56:43.183Z,12.60
2018-09-30T20:59:11.220Z,12.44
2018-09-30T21:01:39.232Z,12.38
2018-09-30T21:04:07.241Z,12.59
2018-09-30T21:06:35.247Z,12.45
2018-09-30T21:09:03.550Z,12.41
2018-09-30T21:11:31.858Z,12.33
2018-09-30T21:14:00.155Z,12.38
2018-09-30T21:16:28.451Z,12.41
2018-09-30T21:18:56.762Z,12.41
2018-09-30T21:21:25.067Z,12.22
2018-09-30T21:23:53.367Z,12.10
2018-09-30T21:26:21.674Z,12.15
2018-09-30T21:28:49.986Z,12.05
2018-09-30T21:31:18.270Z,12.05
2018-09-30T21:33:46.579Z,11.95
2018-09-30T21:36:14.883Z,11.86
2018-09-30T21:38:43.178Z,11.92
2018-09-30T21:41:11.484Z,11.87
2018-09-30T21:43:39.795Z,11.83
2018-09-30T21:46:08.108Z,11.79
2018-09-30T21:48:36.413Z,11.86
2018-09-30T21:51:04.691Z,11.81
2018-09-30T21:53:32.991Z,11.80
2018-09-30T21:56:01.287Z,11.83
2018-09-30T21:58:29.592Z,11.79
2018-09-30T22:00:57.894Z,11.81
2018-09-30T22:03:26.196Z,11.75
2018-09-30T22:05:54.495Z,11.78
2018-09-30T22:08:22.783Z,11.70
2018-09-30T22:10:51.079Z,11.67
2018-09-30T22:13:19.393Z,11.67
2018-09-30T22:15:47.683Z,11.57
2018-09-30T22:18:16.003Z,11.69
2018-09-30T22:20:44.287Z,11.73
2018-09-30T22:23:12.587Z,11.78
2018-09-30T22:25:40.888Z,11.91
2018-09-30T22:28:09.180Z,11.71
2018-09-30T22:30:37.490Z,11.68
2018-09-30T22:33:05.791Z,11.57
2018-09-30T22:35:34.083Z,11.44
2018-09-30T22:38:02.386Z,11.43
2018-09-30T22:40:30.683Z,11.44
2018-09-30T22:42:59.318Z,11.37
2018-09-30T22:45:27.619Z,11.34
2018-09-30T22:47:55.919Z,11.35
2018-09-30T22:50:24.227Z,11.50
2018-09-30T22:52:52.519Z,11.39
2018-09-30T22:55:21.770Z,11.31
2018-09-30T22:57:50.893Z,11.46
2018-09-30T23:00:19.191Z,11.33
2018-09-30T23:02:47.482Z,11.36
2018-09-30T23:05:15.792Z,11.28
2018-09-30T23:07:44.087Z,11.29
2018-09-30T23:10:12.379Z,11.15
2018-09-30T23:12:40.688Z,11.16
2018-09-30T23:15:08.979Z,11.10
2018-09-30T23:17:37.271Z,11.11
2018-09-30T23:20:05.575Z,11.22
2018-09-30T23:22:33.868Z,11.26
2018-09-30T23:25:02.171Z,11.31
2018-09-30T23:27:30.463Z,11.27
2018-09-30T23:29:58.775Z,11.16
2018-09-30T23:32:27.063Z,11.30
2018-09-30T23:34:55.376Z,11.34
2018-09-30T23:37:23.698Z,11.36
2018-09-30T23:39:53.003Z,11.40
2018-09-30T23:42:21.311Z,11.39
2018-09-30T23:44:49.603Z,11.29
2018-09-30T23:47:17.945Z,11.35
2018-09-30T23:49:46.240Z,11.38
2018-09-30T23:52:14.531Z,11.32
2018-09-30T23:54:42.892Z,11.52
2018-09-30T23:57:11.153Z,11.45
2018-09-30T23:59:39.440Z,11.43
